createdAt,value
2017-03-03T00:00:26.595Z,953.3
2017-03-03T00:01:26.532Z,953.41
2017-03-03T00:02:26.471Z,953.36
2017-03-03T00:03:26.511Z,953.41
2017-03-03T00:04:26.541Z,953.4
2017-03-03T00:05:26.491Z,953.45
2017-03-03T00:06:26.537Z,953.43
2017-03-03T00:07:26.641Z,953.45
2017-03-03T00:08:26.418Z,953.47
2017-03-03T00:09:26.471Z,953.47
2017-03-03T00:10:26.482Z,953.52
2017-03-03T00:11:26.433Z,953.51
2017-03-03T00:12:26.527Z,953.57
2017-03-03T00:13:26.327Z,953.59
2017-03-03T00:14:26.305Z,953.63
2017-03-03T00:15:26.311Z,953.55
2017-03-03T00:16:26.281Z,953.57
2017-03-03T00:17:26.340Z,953.53
2017-03-03T00:18:26.293Z,953.53
2017-03-03T00:19:26.289Z,953.51
2017-03-03T00:20:26.217Z,953.53
2017-03-03T00:21:26.261Z,953.47
2017-03-03T00:22:26.271Z,953.51
2017-03-03T00:23:26.212Z,953.54
2017-03-03T00:24:26.132Z,953.54
2017-03-03T00:25:26.219Z,953.54
2017-03-03T00:26:26.196Z,953.57
2017-03-03T00:27:26.277Z,953.6
2017-03-03T00:28:26.226Z,953.61
2017-03-03T00:29:26.131Z,953.63
2017-03-03T00:30:26.125Z,953.63
2017-03-03T00:31:26.102Z,953.63
2017-03-03T00:32:26.116Z,953.69
2017-03-03T00:33:26.062Z,953.66
2017-03-03T00:34:26.041Z,953.69
2017-03-03T00:35:26.017Z,953.76
2017-03-03T00:36:25.986Z,953.7
2017-03-03T00:37:26.064Z,953.75
2017-03-03T00:38:26.073Z,953.69
2017-03-03T00:39:26.003Z,953.67
2017-03-03T00:40:25.950Z,953.61
2017-03-03T00:41:25.967Z,953.66
2017-03-03T00:42:26.069Z,953.69
2017-03-03T00:43:25.943Z,953.69
2017-03-03T00:44:25.934Z,953.67
2017-03-03T00:45:25.828Z,953.68
2017-03-03T00:46:25.868Z,953.71
2017-03-03T00:47:25.903Z,953.74
2017-03-03T00:48:25.900Z,953.83
2017-03-03T00:49:25.774Z,953.79
2017-03-03T00:50:25.826Z,953.74
2017-03-03T00:51:25.792Z,953.72
2017-03-03T00:52:25.882Z,953.71
2017-03-03T00:53:25.739Z,953.7
2017-03-03T00:54:25.747Z,953.71
2017-03-03T00:55:25.764Z,953.7
2017-03-03T00:56:25.732Z,953.68
2017-03-03T00:57:25.849Z,953.62
2017-03-03T00:58:25.650Z,953.67
2017-03-03T00:59:25.735Z,953.64
2017-03-03T01:00:25.711Z,953.64
2017-03-03T01:01:25.652Z,953.65
2017-03-03T01:02:25.639Z,953.65
2017-03-03T01:03:25.577Z,953.66
2017-03-03T01:04:25.585Z,953.68
2017-03-03T01:05:25.507Z,953.76
2017-03-03T01:06:25.555Z,953.68
2017-03-03T01:07:25.693Z,953.73
2017-03-03T01:08:25.462Z,953.72
2017-03-03T01:09:25.527Z,953.76
2017-03-03T01:10:25.559Z,953.74
2017-03-03T01:11:25.486Z,953.72
2017-03-03T01:12:25.608Z,953.74
2017-03-03T01:13:25.387Z,953.76
2017-03-03T01:14:25.400Z,953.79
2017-03-03T01:15:25.442Z,953.79
2017-03-03T01:16:25.436Z,953.77
2017-03-03T01:17:25.434Z,953.75
2017-03-03T01:18:25.311Z,953.78
2017-03-03T01:19:25.297Z,953.72
2017-03-03T01:20:25.281Z,953.74
2017-03-03T01:21:25.332Z,953.78
2017-03-03T01:22:25.279Z,953.71
2017-03-03T01:23:25.336Z,953.7
2017-03-03T01:24:25.268Z,953.72
2017-03-03T01:25:25.326Z,953.69
2017-03-03T01:26:25.259Z,953.69
2017-03-03T01:27:25.257Z,953.74
2017-03-03T01:28:25.205Z,953.73
2017-03-03T01:29:25.313Z,953.71
2017-03-03T01:30:25.143Z,953.69
2017-03-03T01:31:25.211Z,953.69
2017-03-03T01:32:25.177Z,953.66
2017-03-03T01:33:25.193Z,953.67
2017-03-03T01:34:25.187Z,953.68
2017-03-03T01:35:25.149Z,953.67
2017-03-03T01:36:25.126Z,953.68
2017-03-03T01:37:25.200Z,953.67
2017-03-03T01:38:25.184Z,953.69
2017-03-03T01:39:25.119Z,953.72
2017-03-03T01:40:25.130Z,953.75
2017-03-03T01:41:25.103Z,953.74
2017-03-03T01:42:25.254Z,953.73
2017-03-03T01:43:24.941Z,953.69
2017-03-03T01:44:24.927Z,953.7
2017-03-03T01:45:24.911Z,953.71
2017-03-03T01:46:24.895Z,953.72
2017-03-03T01:47:24.881Z,953.67
2017-03-03T01:48:24.866Z,953.74
2017-03-03T01:49:24.851Z,953.7
2017-03-03T01:50:24.836Z,953.7
2017-03-03T01:51:24.822Z,953.68
2017-03-03T01:52:24.806Z,953.67
2017-03-03T01:53:24.791Z,953.68
2017-03-03T01:54:24.777Z,953.6
2017-03-03T01:55:24.763Z,953.6
2017-03-03T01:56:24.748Z,953.62
2017-03-03T01:57:24.732Z,953.63
2017-03-03T01:58:24.717Z,953.58
2017-03-03T01:59:24.703Z,953.59
2017-03-03T02:00:24.688Z,953.6
2017-03-03T02:01:24.672Z,953.56
2017-03-03T02:02:24.657Z,953.59
2017-03-03T02:03:24.643Z,953.61
2017-03-03T02:04:24.628Z,953.59
2017-03-03T02:05:24.612Z,953.61
2017-03-03T02:06:24.597Z,953.58
2017-03-03T02:07:24.583Z,953.59
2017-03-03T02:08:24.567Z,953.6
2017-03-03T02:09:24.552Z,953.61
2017-03-03T02:10:24.537Z,953.63
2017-03-03T02:11:24.521Z,953.56
2017-03-03T02:12:24.507Z,953.58
2017-03-03T02:13:24.493Z,953.58
2017-03-03T02:14:24.478Z,953.57
2017-03-03T02:15:24.462Z,953.6
2017-03-03T02:16:24.448Z,953.6
2017-03-03T02:17:24.433Z,953.56
2017-03-03T02:18:24.417Z,953.64
2017-03-03T02:19:24.402Z,953.61
2017-03-03T02:20:24.386Z,953.62
2017-03-03T02:21:24.372Z,953.64
2017-03-03T02:22:24.356Z,953.57
2017-03-03T02:23:24.342Z,953.64
2017-03-03T02:24:24.326Z,953.6
2017-03-03T02:25:24.311Z,953.58
2017-03-03T02:26:24.296Z,953.6
2017-03-03T02:27:24.281Z,953.57
2017-03-03T02:28:24.266Z,953.56
2017-03-03T02:29:24.252Z,953.58
2017-03-03T02:30:24.235Z,953.58
2017-03-03T02:31:24.223Z,953.61
2017-03-03T02:32:24.206Z,953.61
2017-03-03T02:33:24.191Z,953.57
2017-03-03T02:34:24.177Z,953.56
2017-03-03T02:35:24.162Z,953.57
2017-03-03T02:36:24.147Z,953.52
2017-03-03T02:37:24.132Z,953.54
2017-03-03T02:38:24.116Z,953.57
2017-03-03T02:39:24.101Z,953.57
2017-03-03T02:40:24.087Z,953.55
2017-03-03T02:41:24.071Z,953.53
2017-03-03T02:42:24.056Z,953.53
2017-03-03T02:43:24.042Z,953.47
2017-03-03T02:44:24.025Z,953.5
2017-03-03T02:45:24.013Z,953.47
2017-03-03T02:46:23.997Z,953.47
2017-03-03T02:47:23.982Z,953.48
2017-03-03T02:48:23.966Z,953.45
2017-03-03T02:49:23.952Z,953.44
2017-03-03T02:50:23.937Z,953.43
2017-03-03T02:51:23.922Z,953.47
2017-03-03T02:52:23.906Z,953.49
2017-03-03T02:53:23.891Z,953.45
2017-03-03T02:54:23.876Z,953.47
2017-03-03T02:55:23.859Z,953.42
2017-03-03T02:56:23.844Z,953.44
2017-03-03T02:57:23.831Z,953.45
2017-03-03T02:58:23.815Z,953.47
2017-03-03T02:59:23.799Z,953.46
2017-03-03T03:00:23.784Z,953.48
2017-03-03T03:01:23.770Z,953.43
2017-03-03T03:02:23.753Z,953.46
2017-03-03T03:03:23.738Z,953.46
2017-03-03T03:04:23.722Z,953.44
2017-03-03T03:05:23.707Z,953.43
2017-03-03T03:06:23.691Z,953.4
2017-03-03T03:07:23.677Z,953.38
2017-03-03T03:08:23.661Z,953.48
2017-03-03T03:09:23.648Z,953.42
2017-03-03T03:10:23.630Z,953.42
2017-03-03T03:11:23.615Z,953.43
2017-03-03T03:12:23.599Z,953.45
2017-03-03T03:13:23.583Z,953.42
2017-03-03T03:14:23.568Z,953.39
2017-03-03T03:15:23.553Z,953.36
2017-03-03T03:16:23.537Z,953.36
2017-03-03T03:17:23.522Z,953.34
2017-03-03T03:18:23.521Z,953.32
2017-03-03T03:19:23.491Z,953.31
2017-03-03T03:20:23.475Z,953.22
2017-03-03T03:21:23.458Z,953.24
2017-03-03T03:22:23.445Z,953.26
2017-03-03T03:23:23.429Z,953.22
2017-03-03T03:24:23.412Z,953.2
2017-03-03T03:25:23.397Z,953.2
2017-03-03T03:26:23.381Z,953.19
2017-03-03T03:27:23.365Z,953.15
2017-03-03T03:28:23.349Z,953.18
2017-03-03T03:29:23.335Z,953.16
2017-03-03T03:30:23.319Z,953.09
2017-03-03T03:31:23.303Z,953.12
2017-03-03T03:32:23.286Z,953.15
2017-03-03T03:33:23.271Z,953.15
2017-03-03T03:34:23.255Z,953.15
2017-03-03T03:35:23.240Z,953.12
2017-03-03T03:36:23.224Z,953.14
2017-03-03T03:37:23.210Z,953.13
2017-03-03T03:38:23.193Z,953.09
2017-03-03T03:39:23.177Z,953.08
2017-03-03T03:40:23.162Z,953.04
2017-03-03T03:41:23.146Z,953.07
2017-03-03T03:42:23.131Z,953.03
2017-03-03T03:43:23.114Z,953.04
2017-03-03T03:44:23.100Z,953.02
2017-03-03T03:45:23.084Z,952.97
2017-03-03T03:46:23.068Z,953.04
2017-03-03T03:47:23.051Z,952.98
2017-03-03T03:48:23.036Z,953
2017-03-03T03:49:23.022Z,952.99
2017-03-03T03:50:23.005Z,953
2017-03-03T03:51:22.988Z,953.01
2017-03-03T03:52:22.973Z,953.01
2017-03-03T03:53:22.957Z,953.02
2017-03-03T03:54:22.943Z,952.97
2017-03-03T03:55:22.926Z,952.95
2017-03-03T03:56:22.909Z,952.96
2017-03-03T03:57:22.894Z,952.94
2017-03-03T03:58:22.877Z,952.95
2017-03-03T03:59:22.863Z,952.95
2017-03-03T04:00:22.846Z,952.96
2017-03-03T04:01:22.831Z,952.97
2017-03-03T04:02:22.814Z,952.97
2017-03-03T04:03:22.799Z,953
2017-03-03T04:04:22.783Z,952.99
2017-03-03T04:05:22.766Z,953
2017-03-03T04:06:22.751Z,952.97
2017-03-03T04:07:22.735Z,952.99
2017-03-03T04:08:22.718Z,952.98
2017-03-03T04:09:22.702Z,952.97
2017-03-03T04:10:22.688Z,952.95
2017-03-03T04:11:22.672Z,952.94
2017-03-03T04:12:22.656Z,952.97
2017-03-03T04:13:22.640Z,952.99
2017-03-03T04:14:22.625Z,952.99
2017-03-03T04:15:22.608Z,952.98
2017-03-03T04:16:22.593Z,953.01
2017-03-03T04:17:22.578Z,953.01
2017-03-03T04:18:22.561Z,953.04
2017-03-03T04:19:22.545Z,953
2017-03-03T04:20:22.529Z,953
2017-03-03T04:21:22.514Z,953
2017-03-03T04:22:22.498Z,953.01
2017-03-03T04:23:22.482Z,952.98
2017-03-03T04:24:22.467Z,952.96
2017-03-03T04:25:22.451Z,952.94
2017-03-03T04:26:22.434Z,952.93
2017-03-03T04:27:22.417Z,952.95
2017-03-03T04:28:22.402Z,952.9
2017-03-03T04:29:22.386Z,952.92
2017-03-03T04:30:22.370Z,952.94
2017-03-03T04:31:22.353Z,952.91
2017-03-03T04:32:22.339Z,952.87
2017-03-03T04:33:22.323Z,952.88
2017-03-03T04:34:22.305Z,952.89
2017-03-03T04:35:22.289Z,952.92
2017-03-03T04:36:22.275Z,952.91
2017-03-03T04:37:22.258Z,952.85
2017-03-03T04:38:22.242Z,952.87
2017-03-03T04:39:22.227Z,952.88
2017-03-03T04:40:22.211Z,952.87
2017-03-03T04:41:22.194Z,952.84
2017-03-03T04:42:22.178Z,952.8
2017-03-03T04:43:22.162Z,952.84
2017-03-03T04:44:22.146Z,952.85
2017-03-03T04:45:22.130Z,952.86
2017-03-03T04:46:22.115Z,952.81
2017-03-03T04:47:22.098Z,952.83
2017-03-03T04:48:22.083Z,952.81
2017-03-03T04:49:22.066Z,952.79
2017-03-03T04:50:22.050Z,952.76
2017-03-03T04:51:22.034Z,952.83
2017-03-03T04:52:22.018Z,952.84
2017-03-03T04:53:22.002Z,952.82
2017-03-03T04:54:21.987Z,952.83
2017-03-03T04:55:21.972Z,952.82
2017-03-03T04:56:21.954Z,952.79
2017-03-03T04:57:21.939Z,952.76
2017-03-03T04:58:21.924Z,952.83
2017-03-03T04:59:21.906Z,952.86
2017-03-03T05:00:21.890Z,952.83
2017-03-03T05:01:21.875Z,952.8
2017-03-03T05:02:21.876Z,952.78
2017-03-03T05:03:21.842Z,952.79
2017-03-03T05:04:21.827Z,952.78
2017-03-03T05:05:21.811Z,952.7
2017-03-03T05:06:21.795Z,952.78
2017-03-03T05:07:21.777Z,952.74
2017-03-03T05:08:21.764Z,952.76
2017-03-03T05:09:21.746Z,952.8
2017-03-03T05:10:21.731Z,952.75
2017-03-03T05:11:21.713Z,952.75
2017-03-03T05:12:21.698Z,952.73
2017-03-03T05:13:21.683Z,952.75
2017-03-03T05:14:21.666Z,952.76
2017-03-03T05:15:21.651Z,952.74
2017-03-03T05:16:21.634Z,952.73
2017-03-03T05:17:21.619Z,952.68
2017-03-03T05:18:21.602Z,952.66
2017-03-03T05:19:21.587Z,952.69
2017-03-03T05:20:21.570Z,952.65
2017-03-03T05:21:21.553Z,952.53
2017-03-03T05:22:21.543Z,952.43
2017-03-03T05:23:21.522Z,952.44
2017-03-03T05:24:21.506Z,952.47
2017-03-03T05:25:21.490Z,952.5
2017-03-03T05:26:21.474Z,952.49
2017-03-03T05:27:21.473Z,952.55
2017-03-03T05:28:21.443Z,952.5
2017-03-03T05:29:21.426Z,952.57
2017-03-03T05:30:21.410Z,952.65
2017-03-03T05:31:21.396Z,952.66
2017-03-03T05:32:21.378Z,952.63
2017-03-03T05:33:21.366Z,952.67
2017-03-03T05:34:21.346Z,952.68
2017-03-03T05:35:21.330Z,952.63
2017-03-03T05:36:21.314Z,952.65
2017-03-03T05:37:21.298Z,952.65
2017-03-03T05:38:21.283Z,952.68
2017-03-03T05:39:21.266Z,952.64
2017-03-03T05:40:21.249Z,952.62
2017-03-03T05:41:21.234Z,952.63
2017-03-03T05:42:21.217Z,952.66
2017-03-03T05:43:21.201Z,952.65
2017-03-03T05:44:21.187Z,952.68
2017-03-03T05:45:21.170Z,952.65
2017-03-03T05:46:21.153Z,952.65
2017-03-03T05:47:21.136Z,952.6
2017-03-03T05:48:21.121Z,952.58
2017-03-03T05:49:21.104Z,952.57
2017-03-03T05:50:21.090Z,952.51
2017-03-03T05:51:21.073Z,952.55
2017-03-03T05:52:21.058Z,952.59
2017-03-03T05:53:21.043Z,952.6
2017-03-03T05:54:21.164Z,952.57
2017-03-03T05:55:21.009Z,952.56
2017-03-03T05:56:20.994Z,952.51
2017-03-03T05:57:20.977Z,952.55
2017-03-03T05:58:20.959Z,952.56
2017-03-03T05:59:20.943Z,952.6
2017-03-03T06:00:20.928Z,952.59
2017-03-03T06:01:20.911Z,952.61
2017-03-03T06:02:20.895Z,952.6
2017-03-03T06:03:20.880Z,952.61
2017-03-03T06:04:20.864Z,952.56
2017-03-03T06:05:20.846Z,952.55
2017-03-03T06:06:20.834Z,952.54
2017-03-03T06:07:20.814Z,952.56
2017-03-03T06:08:20.798Z,952.59
2017-03-03T06:09:20.782Z,952.55
2017-03-03T06:10:20.767Z,952.56
2017-03-03T06:11:20.750Z,952.62
2017-03-03T06:12:20.734Z,952.6
2017-03-03T06:13:20.718Z,952.61
2017-03-03T06:14:20.702Z,952.6
2017-03-03T06:15:20.686Z,952.58
2017-03-03T06:16:20.669Z,952.57
2017-03-03T06:17:20.654Z,952.64
2017-03-03T06:18:20.637Z,952.57
2017-03-03T06:19:20.621Z,952.6
2017-03-03T06:20:20.605Z,952.6
2017-03-03T06:21:20.590Z,952.59
2017-03-03T06:22:20.572Z,952.61
2017-03-03T06:23:20.557Z,952.62
2017-03-03T06:24:20.540Z,952.59
2017-03-03T06:25:20.524Z,952.6
2017-03-03T06:26:20.510Z,952.54
2017-03-03T06:27:20.492Z,952.52
2017-03-03T06:28:20.478Z,952.49
2017-03-03T06:29:20.460Z,952.56
2017-03-03T06:30:20.446Z,952.55
2017-03-03T06:31:20.430Z,952.48
2017-03-03T06:32:20.412Z,952.45
2017-03-03T06:33:20.398Z,952.44
2017-03-03T06:34:20.380Z,952.4
2017-03-03T06:35:20.365Z,952.39
2017-03-03T06:36:20.349Z,952.4
2017-03-03T06:37:20.335Z,952.4
2017-03-03T06:38:20.355Z,952.36
2017-03-03T06:39:20.301Z,952.38
2017-03-03T06:40:20.285Z,952.38
2017-03-03T06:41:20.270Z,952.4
2017-03-03T06:42:20.253Z,952.34
2017-03-03T06:43:20.238Z,952.31
2017-03-03T06:44:20.223Z,952.36
2017-03-03T06:45:20.206Z,952.33
2017-03-03T06:46:20.192Z,952.36
2017-03-03T06:47:20.176Z,952.38
2017-03-03T06:48:20.161Z,952.36
2017-03-03T06:49:20.144Z,952.37
2017-03-03T06:50:20.129Z,952.38
2017-03-03T06:51:20.113Z,952.44
2017-03-03T06:52:20.098Z,952.42
2017-03-03T06:53:20.081Z,952.5
2017-03-03T06:54:20.065Z,952.49
2017-03-03T06:55:20.050Z,952.47
2017-03-03T06:56:20.034Z,952.48
2017-03-03T06:57:20.018Z,952.5
2017-03-03T06:58:20.003Z,952.47
2017-03-03T06:59:19.988Z,952.49
2017-03-03T07:00:19.971Z,952.51
2017-03-03T07:01:19.958Z,952.56
2017-03-03T07:02:19.941Z,952.52
2017-03-03T07:03:19.927Z,952.52
2017-03-03T07:04:19.910Z,952.52
2017-03-03T07:05:19.895Z,952.5
2017-03-03T07:06:19.880Z,952.45
2017-03-03T07:07:19.863Z,952.47
2017-03-03T07:08:19.849Z,952.51
2017-03-03T07:09:19.833Z,952.46
2017-03-03T07:10:19.817Z,952.49
2017-03-03T07:11:19.802Z,952.48
2017-03-03T07:12:19.787Z,952.44
2017-03-03T07:13:19.772Z,952.39
2017-03-03T07:14:19.757Z,952.41
2017-03-03T07:15:19.740Z,952.38
2017-03-03T07:16:19.725Z,952.38
2017-03-03T07:17:19.711Z,952.3
2017-03-03T07:18:19.696Z,952.32
2017-03-03T07:19:19.679Z,952.3
2017-03-03T07:20:19.666Z,952.32
2017-03-03T07:21:19.650Z,952.26
2017-03-03T07:22:19.636Z,952.25
2017-03-03T07:23:19.619Z,952.26
2017-03-03T07:24:19.604Z,952.25
2017-03-03T07:25:19.590Z,952.23
2017-03-03T07:26:19.575Z,952.23
2017-03-03T07:27:19.560Z,952.25
2017-03-03T07:28:19.547Z,952.23
2017-03-03T07:29:19.530Z,952.24
2017-03-03T07:30:19.516Z,952.17
2017-03-03T07:31:19.501Z,952.23
2017-03-03T07:32:19.485Z,952.23
2017-03-03T07:33:19.470Z,952.23
2017-03-03T07:34:19.455Z,952.25
2017-03-03T07:35:19.440Z,952.29
2017-03-03T07:36:19.426Z,952.23
2017-03-03T07:37:19.410Z,952.3
2017-03-03T07:38:19.396Z,952.26
2017-03-03T07:39:19.381Z,952.26
2017-03-03T07:40:19.367Z,952.21
2017-03-03T07:41:19.351Z,952.23
2017-03-03T07:42:19.337Z,952.17
2017-03-03T07:43:19.324Z,952.15
2017-03-03T07:44:19.307Z,952.17
2017-03-03T07:45:19.294Z,952.19
2017-03-03T07:46:19.279Z,952.17
2017-03-03T07:47:19.263Z,952.11
2017-03-03T07:48:19.248Z,952.01
2017-03-03T07:49:19.236Z,952.01
2017-03-03T07:50:19.222Z,951.95
2017-03-03T07:51:19.206Z,951.97
2017-03-03T07:52:19.191Z,951.95
2017-03-03T07:53:19.178Z,951.94
2017-03-03T07:54:19.164Z,951.95
2017-03-03T07:55:19.148Z,951.97
2017-03-03T07:56:19.135Z,951.93
2017-03-03T07:57:19.120Z,952
2017-03-03T07:58:19.105Z,951.93
2017-03-03T07:59:19.094Z,951.92
2017-03-03T08:00:19.079Z,951.95
2017-03-03T08:01:19.063Z,951.93
2017-03-03T08:02:19.049Z,951.88
2017-03-03T08:03:19.034Z,951.88
2017-03-03T08:04:19.021Z,951.81
2017-03-03T08:05:19.007Z,951.79
2017-03-03T08:06:18.993Z,951.75
2017-03-03T08:07:18.979Z,951.76
2017-03-03T08:08:18.965Z,951.75
2017-03-03T08:09:18.951Z,951.69
2017-03-03T08:10:18.937Z,951.67
2017-03-03T08:11:18.924Z,951.63
2017-03-03T08:12:18.910Z,951.62
2017-03-03T08:13:18.895Z,951.61
2017-03-03T08:14:18.882Z,951.67
2017-03-03T08:15:18.867Z,951.66
2017-03-03T08:16:18.854Z,951.6
2017-03-03T08:17:18.839Z,951.57
2017-03-03T08:18:18.826Z,951.58
2017-03-03T08:19:18.812Z,951.57
2017-03-03T08:20:18.797Z,951.57
2017-03-03T08:21:18.785Z,951.6
2017-03-03T08:22:18.770Z,951.66
2017-03-03T08:23:18.757Z,951.67
2017-03-03T08:24:18.743Z,951.75
2017-03-03T08:25:18.728Z,951.69
2017-03-03T08:26:18.714Z,951.72
2017-03-03T08:27:18.701Z,951.72
2017-03-03T08:28:18.686Z,951.72
2017-03-03T08:29:18.673Z,951.71
2017-03-03T08:30:18.660Z,951.64
2017-03-03T08:31:18.645Z,951.63
2017-03-03T08:32:18.633Z,951.68
2017-03-03T08:33:18.618Z,951.66
2017-03-03T08:34:18.607Z,951.6
2017-03-03T08:35:18.591Z,951.58
2017-03-03T08:36:18.578Z,951.56
2017-03-03T08:37:18.565Z,951.57
2017-03-03T08:38:18.551Z,951.6
2017-03-03T08:39:18.537Z,951.64
2017-03-03T08:40:18.524Z,951.68
2017-03-03T08:41:18.510Z,951.69
2017-03-03T08:42:18.497Z,951.72
2017-03-03T08:43:18.483Z,951.71
2017-03-03T08:44:18.472Z,951.63
2017-03-03T08:45:18.458Z,951.55
2017-03-03T08:46:18.443Z,951.63
2017-03-03T08:47:18.431Z,951.62
2017-03-03T08:48:18.421Z,951.52
2017-03-03T08:49:18.403Z,951.43
2017-03-03T08:50:18.390Z,951.35
2017-03-03T08:51:18.378Z,951.38
2017-03-03T08:52:18.366Z,951.34
2017-03-03T08:53:18.444Z,951.29
2017-03-03T08:54:18.361Z,951.22
2017-03-03T08:55:18.324Z,951.32
2017-03-03T08:56:18.311Z,951.33
2017-03-03T08:57:18.301Z,951.33
2017-03-03T08:58:18.486Z,951.22
2017-03-03T08:59:18.272Z,951.17
2017-03-03T09:00:18.261Z,951.13
2017-03-03T09:01:18.247Z,951.22
2017-03-03T09:02:18.234Z,951.16
2017-03-03T09:03:18.224Z,951.16
2017-03-03T09:04:18.208Z,951.1
2017-03-03T09:05:18.195Z,951.13
2017-03-03T09:06:18.184Z,951.07
2017-03-03T09:07:18.171Z,951.06
2017-03-03T09:08:18.159Z,951.05
2017-03-03T09:09:18.146Z,951.09
2017-03-03T09:10:18.133Z,951.08
2017-03-03T09:11:18.121Z,951.04
2017-03-03T09:12:18.107Z,951
2017-03-03T09:13:18.095Z,951.12
2017-03-03T09:14:18.084Z,951.09
2017-03-03T09:15:18.069Z,951.04
2017-03-03T09:16:18.058Z,951.08
2017-03-03T09:17:18.060Z,951
2017-03-03T09:18:18.048Z,951
2017-03-03T09:19:18.034Z,951.01
2017-03-03T09:20:18.063Z,950.97
2017-03-03T09:21:18.050Z,950.96
2017-03-03T09:22:18.037Z,950.95
2017-03-03T09:23:18.067Z,950.91
2017-03-03T09:24:18.055Z,950.91
2017-03-03T09:25:18.042Z,950.89
2017-03-03T09:26:18.068Z,950.9
2017-03-03T09:27:18.056Z,950.83
2017-03-03T09:28:18.045Z,950.75
2017-03-03T09:29:18.072Z,950.82
2017-03-03T09:30:18.056Z,950.86
2017-03-03T09:31:18.045Z,950.89
2017-03-03T09:32:18.072Z,950.86
2017-03-03T09:33:18.063Z,950.85
2017-03-03T09:34:18.047Z,950.86
2017-03-03T09:35:18.075Z,950.9
2017-03-03T09:36:18.064Z,950.87
2017-03-03T09:37:18.053Z,950.89
2017-03-03T09:38:18.039Z,950.84
2017-03-03T09:39:18.028Z,950.88
2017-03-03T09:40:18.019Z,950.85
2017-03-03T09:41:18.007Z,950.86
2017-03-03T09:42:17.993Z,950.91
2017-03-03T09:43:17.982Z,950.96
2017-03-03T09:44:17.971Z,950.93
2017-03-03T09:45:17.960Z,950.96
2017-03-03T09:46:17.949Z,950.82
2017-03-03T09:47:17.937Z,950.98
2017-03-03T09:48:17.927Z,950.88
2017-03-03T09:49:17.913Z,950.86
2017-03-03T09:50:17.903Z,950.74
2017-03-03T09:51:17.893Z,950.81
2017-03-03T09:52:17.881Z,950.81
2017-03-03T09:53:17.869Z,950.93
2017-03-03T09:54:17.858Z,950.95
2017-03-03T09:55:17.848Z,950.96
2017-03-03T09:56:17.835Z,950.93
2017-03-03T09:57:17.825Z,950.91
2017-03-03T09:58:17.813Z,950.88
2017-03-03T09:59:17.805Z,950.9
2017-03-03T10:00:17.791Z,950.94
2017-03-03T10:01:17.781Z,951.01
2017-03-03T10:02:17.770Z,951.07
2017-03-03T10:03:17.759Z,950.99
2017-03-03T10:04:17.747Z,950.95
2017-03-03T10:05:17.737Z,950.93
2017-03-03T10:06:17.725Z,950.92
2017-03-03T10:07:17.713Z,950.95
2017-03-03T10:08:17.702Z,950.99
2017-03-03T10:09:17.693Z,950.98
2017-03-03T10:10:17.682Z,950.97
2017-03-03T10:11:17.671Z,950.9
2017-03-03T10:12:17.659Z,950.78
2017-03-03T10:13:17.649Z,950.77
2017-03-03T10:14:17.639Z,950.69
2017-03-03T10:15:17.627Z,950.67
2017-03-03T10:16:17.616Z,950.64
2017-03-03T10:17:17.606Z,950.63
2017-03-03T10:18:17.595Z,950.65
2017-03-03T10:19:17.586Z,950.67
2017-03-03T10:20:17.575Z,950.58
2017-03-03T10:21:17.564Z,950.58
2017-03-03T10:22:17.555Z,950.59
2017-03-03T10:23:17.545Z,950.53
2017-03-03T10:24:17.535Z,950.49
2017-03-03T10:25:17.525Z,950.46
2017-03-03T10:26:17.515Z,950.46
2017-03-03T10:27:17.506Z,950.42
2017-03-03T10:28:17.497Z,950.4
2017-03-03T10:29:17.485Z,950.4
2017-03-03T10:30:17.475Z,950.34
2017-03-03T10:31:17.466Z,950.34
2017-03-03T10:32:17.456Z,950.31
2017-03-03T10:33:17.446Z,950.34
2017-03-03T10:34:17.437Z,950.24
2017-03-03T10:35:17.429Z,950.27
2017-03-03T10:36:17.419Z,950.17
2017-03-03T10:37:17.409Z,950.2
2017-03-03T10:38:17.399Z,950.12
2017-03-03T10:39:17.390Z,950.15
2017-03-03T10:40:17.382Z,950.17
2017-03-03T10:41:17.372Z,950.17
2017-03-03T10:42:17.363Z,950.18
2017-03-03T10:43:17.354Z,950.19
2017-03-03T10:44:17.344Z,950.2
2017-03-03T10:45:17.336Z,950.19
2017-03-03T10:46:17.327Z,950.16
2017-03-03T10:47:17.318Z,950.11
2017-03-03T10:48:17.308Z,950.05
2017-03-03T10:49:17.299Z,950.06
2017-03-03T10:50:17.292Z,950.02
2017-03-03T10:51:17.283Z,949.97
2017-03-03T10:52:17.272Z,949.98
2017-03-03T10:53:17.263Z,949.88
2017-03-03T10:54:17.255Z,949.91
2017-03-03T10:55:17.246Z,949.84
2017-03-03T10:56:17.237Z,949.85
2017-03-03T10:57:17.228Z,949.8
2017-03-03T10:58:17.220Z,949.83
2017-03-03T10:59:17.210Z,949.86
2017-03-03T11:00:17.203Z,949.79
2017-03-03T11:01:17.194Z,949.83
2017-03-03T11:02:17.184Z,949.76
2017-03-03T11:03:17.175Z,949.74
2017-03-03T11:04:17.166Z,949.74
2017-03-03T11:05:17.159Z,949.73
2017-03-03T11:06:17.149Z,949.76
2017-03-03T11:07:17.140Z,949.75
2017-03-03T11:08:17.132Z,949.75
2017-03-03T11:09:17.123Z,949.76
2017-03-03T11:10:17.114Z,949.67
2017-03-03T11:11:17.106Z,949.7
2017-03-03T11:12:17.098Z,949.64
2017-03-03T11:13:17.090Z,949.63
2017-03-03T11:14:17.082Z,949.54
2017-03-03T11:15:17.073Z,949.52
2017-03-03T11:16:17.065Z,949.54
2017-03-03T11:17:17.056Z,949.56
2017-03-03T11:18:17.048Z,949.52
2017-03-03T11:19:17.041Z,949.58
2017-03-03T11:20:17.032Z,949.57
2017-03-03T11:21:17.024Z,949.52
2017-03-03T11:22:17.016Z,949.49
2017-03-03T11:23:17.009Z,949.47
2017-03-03T11:24:16.999Z,949.45
2017-03-03T11:25:16.993Z,949.41
2017-03-03T11:26:16.985Z,949.37
2017-03-03T11:27:16.978Z,949.36
2017-03-03T11:28:16.968Z,949.39
2017-03-03T11:29:16.961Z,949.34
2017-03-03T11:30:16.954Z,949.32
2017-03-03T11:31:16.945Z,949.24
2017-03-03T11:32:16.937Z,949.2
2017-03-03T11:33:16.929Z,949.16
2017-03-03T11:34:16.923Z,949.13
2017-03-03T11:35:16.914Z,949.09
2017-03-03T11:36:16.907Z,949.08
2017-03-03T11:37:16.899Z,949
2017-03-03T11:38:16.892Z,948.96
2017-03-03T11:39:16.884Z,948.95
2017-03-03T11:40:16.876Z,948.94
2017-03-03T11:41:16.870Z,948.85
2017-03-03T11:42:16.862Z,948.91
2017-03-03T11:43:16.854Z,948.84
2017-03-03T11:44:16.847Z,948.84
2017-03-03T11:45:16.840Z,948.86
2017-03-03T11:46:16.831Z,948.87
2017-03-03T11:47:16.824Z,948.87
2017-03-03T11:48:16.821Z,948.86
2017-03-03T11:49:16.810Z,948.89
2017-03-03T11:50:16.844Z,948.8
2017-03-03T11:51:16.796Z,948.8
2017-03-03T11:52:16.788Z,948.79
2017-03-03T11:53:16.780Z,948.73
2017-03-03T11:54:16.814Z,948.75
2017-03-03T11:55:16.766Z,948.78
2017-03-03T11:56:16.758Z,948.73
2017-03-03T11:57:16.751Z,948.72
2017-03-03T11:58:16.745Z,948.7
2017-03-03T11:59:16.737Z,948.58
2017-03-03T12:00:16.731Z,948.53
2017-03-03T12:01:16.724Z,948.51
2017-03-03T12:02:16.717Z,948.55
2017-03-03T12:03:16.712Z,948.55
2017-03-03T12:04:16.843Z,948.51
2017-03-03T12:05:16.697Z,948.5
2017-03-03T12:06:16.690Z,948.5
2017-03-03T12:07:16.684Z,948.43
2017-03-03T12:08:16.676Z,948.41
2017-03-03T12:09:16.670Z,948.4
2017-03-03T12:10:16.662Z,948.42
2017-03-03T12:11:16.656Z,948.32
2017-03-03T12:12:16.770Z,948.32
2017-03-03T12:13:16.641Z,948.33
2017-03-03T12:14:16.633Z,948.26
2017-03-03T12:15:16.628Z,948.27
2017-03-03T12:16:16.620Z,948.29
2017-03-03T12:17:16.633Z,948.25
2017-03-03T12:18:16.606Z,948.26
2017-03-03T12:19:16.599Z,948.22
2017-03-03T12:20:16.590Z,948.26
2017-03-03T12:21:16.585Z,948.18
2017-03-03T12:22:16.584Z,948.22
2017-03-03T12:23:16.581Z,948.14
2017-03-03T12:24:16.595Z,948.11
2017-03-03T12:25:16.557Z,948.02
2017-03-03T12:26:16.568Z,948.04
2017-03-03T12:27:16.555Z,947.95
2017-03-03T12:28:16.536Z,947.94
2017-03-03T12:29:16.526Z,947.96
2017-03-03T12:30:16.523Z,947.89
2017-03-03T12:31:17.041Z,947.83